createdAt,value
2017-10-16T00:01:14.817Z,6.80
2017-10-16T00:03:42.330Z,7.27
2017-10-16T00:06:10.626Z,6.90
2017-10-16T00:08:38.135Z,7.17
2017-10-16T00:11:05.717Z,6.60
2017-10-16T00:13:33.221Z,7.33
2017-10-16T00:16:00.726Z,7.10
2017-10-16T00:18:28.249Z,7.40
2017-10-16T00:20:55.753Z,6.53
2017-10-16T00:23:23.278Z,7.27
2017-10-16T00:25:50.785Z,7.73
2017-10-16T00:28:19.071Z,7.20
2017-10-16T00:30:47.337Z,7.07
2017-10-16T00:33:15.630Z,7.80
2017-10-16T00:35:43.137Z,6.97
2017-10-16T00:38:10.656Z,7.40
2017-10-16T00:40:38.164Z,7.35
2017-10-16T00:43:05.692Z,7.50
2017-10-16T00:45:33.195Z,7.17
2017-10-16T00:48:00.727Z,6.50
2017-10-16T00:50:28.237Z,6.70
2017-10-16T00:52:56.527Z,7.73
2017-10-16T00:55:24.016Z,7.20
2017-10-16T00:57:51.536Z,7.70
2017-10-16T01:00:19.816Z,8.00
2017-10-16T01:02:47.341Z,8.13
2017-10-16T01:05:14.850Z,7.85
2017-10-16T01:07:42.381Z,7.37
2017-10-16T01:10:10.651Z,8.17
2017-10-16T01:12:38.949Z,7.57
2017-10-16T01:15:06.465Z,7.43
2017-10-16T01:17:33.995Z,7.28
2017-10-16T01:20:01.501Z,7.47
2017-10-16T01:22:29.026Z,7.82
2017-10-16T01:24:56.526Z,7.70
2017-10-16T01:27:24.825Z,7.12
2017-10-16T01:29:52.324Z,7.20
2017-10-16T01:32:19.855Z,8.23
2017-10-16T01:34:47.368Z,7.00
2017-10-16T01:37:14.897Z,7.80
2017-10-16T01:39:42.406Z,8.43
2017-10-16T01:42:10.695Z,7.97
2017-10-16T01:44:38.964Z,8.85
2017-10-16T01:47:07.261Z,7.00
2017-10-16T01:49:34.761Z,7.60
2017-10-16T01:52:02.274Z,7.15
2017-10-16T01:54:29.783Z,7.20
2017-10-16T01:56:57.304Z,7.50
2017-10-16T01:59:24.809Z,8.02
2017-10-16T02:01:52.336Z,7.80
2017-10-16T02:04:19.841Z,7.75
2017-10-16T02:06:47.384Z,7.87
2017-10-16T02:09:14.893Z,7.60
2017-10-16T02:11:42.411Z,7.53
2017-10-16T02:14:09.918Z,6.95
2017-10-16T02:16:37.442Z,7.17
2017-10-16T02:19:04.940Z,7.65
2017-10-16T02:21:32.452Z,7.00
2017-10-16T02:23:59.962Z,8.30
2017-10-16T02:26:27.497Z,7.07
2017-10-16T02:28:55.765Z,7.17
2017-10-16T02:31:23.296Z,7.70
2017-10-16T02:33:50.816Z,7.40
2017-10-16T02:36:18.342Z,7.60
2017-10-16T02:38:45.832Z,6.73
2017-10-16T02:41:13.353Z,7.53
2017-10-16T02:43:40.857Z,6.97
2017-10-16T02:46:08.386Z,7.50
2017-10-16T02:48:36.661Z,8.00
2017-10-16T02:51:04.957Z,7.50
2017-10-16T02:53:32.465Z,7.37
2017-10-16T02:55:59.990Z,7.00
2017-10-16T02:58:27.507Z,7.60
2017-10-16T03:00:55.037Z,7.47
2017-10-16T03:03:22.547Z,6.70
2017-10-16T03:05:50.834Z,8.30
2017-10-16T03:08:18.357Z,8.13
2017-10-16T03:10:45.885Z,7.07
2017-10-16T03:13:13.389Z,7.75
2017-10-16T03:15:40.910Z,8.80
2017-10-16T03:18:08.425Z,8.15
2017-10-16T03:20:36.713Z,7.87
2017-10-16T03:23:04.228Z,7.87
2017-10-16T03:25:33.454Z,8.43
2017-10-16T03:28:01.723Z,8.20
2017-10-16T03:30:30.015Z,8.10
2017-10-16T03:32:58.294Z,7.82
2017-10-16T03:35:26.585Z,8.50
2017-10-16T03:37:54.093Z,8.30
2017-10-16T03:40:21.621Z,8.95
2017-10-16T03:42:49.137Z,8.60
2017-10-16T03:45:18.272Z,7.90
2017-10-16T03:47:45.773Z,9.07
2017-10-16T03:50:13.303Z,8.57
2017-10-16T03:52:40.813Z,10.13
2017-10-16T03:55:09.110Z,8.68
2017-10-16T03:57:36.604Z,9.20
2017-10-16T04:00:04.128Z,8.30
2017-10-16T04:02:31.628Z,9.43
2017-10-16T04:04:59.154Z,8.65
2017-10-16T04:07:26.667Z,8.52
2017-10-16T04:09:54.188Z,7.87
2017-10-16T04:12:21.732Z,9.48
2017-10-16T04:14:49.997Z,8.32
2017-10-16T04:17:17.522Z,8.45
2017-10-16T04:19:45.045Z,8.77
2017-10-16T04:22:12.533Z,8.68
2017-10-16T04:24:40.093Z,8.00
2017-10-16T04:27:07.605Z,8.60
2017-10-16T04:29:35.124Z,9.63
2017-10-16T04:32:02.626Z,8.50
2017-10-16T04:34:30.151Z,8.27
2017-10-16T04:36:57.647Z,8.85
2017-10-16T04:39:25.149Z,10.32
2017-10-16T04:41:52.685Z,9.30
2017-10-16T04:44:20.181Z,9.17
2017-10-16T04:46:47.718Z,9.10
2017-10-16T04:49:15.219Z,9.05
2017-10-16T04:51:43.500Z,8.88
2017-10-16T04:54:11.769Z,8.50
2017-10-16T04:56:39.283Z,9.50
2017-10-16T04:59:06.781Z,9.20
2017-10-16T05:01:34.302Z,9.52
2017-10-16T05:04:01.812Z,9.13
2017-10-16T05:06:30.100Z,8.82
2017-10-16T05:08:57.612Z,10.95
2017-10-16T05:11:25.133Z,8.70
2017-10-16T05:13:52.637Z,9.18
2017-10-16T05:16:20.160Z,9.45
2017-10-16T05:18:47.656Z,8.95
2017-10-16T05:21:15.170Z,9.50
2017-10-16T05:23:42.671Z,10.30
2017-10-16T05:26:10.194Z,11.15
2017-10-16T05:28:37.692Z,9.90
2017-10-16T05:31:05.225Z,8.30
2017-10-16T05:33:32.732Z,9.20
2017-10-16T05:36:00.248Z,9.63
2017-10-16T05:38:27.752Z,9.15
2017-10-16T05:40:56.044Z,9.88
2017-10-16T05:43:24.318Z,11.25
2017-10-16T05:45:53.457Z,18.42
2017-10-16T05:48:20.972Z,9.88
2017-10-16T05:50:48.500Z,10.52
2017-10-16T05:53:16.005Z,9.80
2017-10-16T05:55:44.374Z,9.55
2017-10-16T05:58:12.913Z,9.25
2017-10-16T06:00:40.916Z,8.52
2017-10-16T06:03:09.013Z,9.75
2017-10-16T06:05:36.596Z,10.02
2017-10-16T06:08:04.304Z,8.40
2017-10-16T06:10:31.841Z,10.02
2017-10-16T06:12:59.348Z,9.38
2017-10-16T06:15:27.652Z,9.45
2017-10-16T06:17:55.144Z,9.32
2017-10-16T06:20:22.670Z,10.57
2017-10-16T06:22:50.178Z,10.48
2017-10-16T06:25:18.463Z,9.52
2017-10-16T06:27:45.965Z,9.43
2017-10-16T06:30:13.712Z,9.80
2017-10-16T06:32:41.980Z,11.05
2017-10-16T06:35:10.272Z,12.73
2017-10-16T06:37:37.777Z,11.90
2017-10-16T06:40:05.301Z,10.48
2017-10-16T06:42:32.809Z,9.77
2017-10-16T06:45:00.336Z,8.95
2017-10-16T06:47:27.832Z,8.37
2017-10-16T06:49:55.359Z,9.05
2017-10-16T06:52:22.864Z,9.00
2017-10-16T06:54:50.402Z,7.80
2017-10-16T06:57:17.909Z,7.93
2017-10-16T06:59:45.424Z,7.97
2017-10-16T07:02:12.930Z,7.60
2017-10-16T07:04:40.460Z,7.78
2017-10-16T07:07:07.964Z,7.43
2017-10-16T07:09:35.489Z,7.10
2017-10-16T07:12:02.986Z,7.70
2017-10-16T07:14:30.509Z,7.20
2017-10-16T07:16:58.769Z,6.93
2017-10-16T07:19:26.302Z,7.13
2017-10-16T07:21:53.792Z,7.63
2017-10-16T07:24:21.325Z,7.90
2017-10-16T07:26:48.843Z,7.50
2017-10-16T07:29:16.376Z,6.90
2017-10-16T07:31:43.874Z,7.53
2017-10-16T07:34:11.400Z,6.85
2017-10-16T07:36:38.897Z,6.77
2017-10-16T07:39:06.421Z,7.80
2017-10-16T07:41:34.694Z,7.67
2017-10-16T07:44:02.981Z,6.93
2017-10-16T07:46:31.253Z,7.60
2017-10-16T07:48:58.809Z,7.40
2017-10-16T07:51:26.305Z,6.80
2017-10-16T07:53:53.830Z,7.60
2017-10-16T07:56:21.329Z,6.70
2017-10-16T07:58:48.845Z,7.27
2017-10-16T08:01:16.345Z,7.23
2017-10-16T08:03:43.873Z,6.93
2017-10-16T08:06:12.133Z,6.70
2017-10-16T08:08:39.655Z,6.80
2017-10-16T08:11:07.157Z,6.73
2017-10-16T08:13:34.677Z,6.43
2017-10-16T08:16:02.177Z,6.33
2017-10-16T08:18:29.698Z,6.80
2017-10-16T08:20:57.196Z,6.53
2017-10-16T08:23:24.721Z,6.40
2017-10-16T08:25:52.218Z,7.43
2017-10-16T08:28:20.502Z,6.80
2017-10-16T08:30:48.763Z,6.80
2017-10-16T08:33:16.278Z,7.17
2017-10-16T08:35:43.764Z,6.90
2017-10-16T08:38:11.284Z,7.07
2017-10-16T08:40:38.778Z,7.00
2017-10-16T08:43:06.302Z,6.80
2017-10-16T08:45:33.801Z,6.90
2017-10-16T08:48:01.317Z,6.87
2017-10-16T08:50:28.820Z,6.77
2017-10-16T08:52:57.265Z,7.33
2017-10-16T08:55:24.767Z,7.00
2017-10-16T08:57:52.300Z,6.37
2017-10-16T09:00:19.813Z,7.17
2017-10-16T09:02:48.107Z,6.23
2017-10-16T09:05:15.610Z,6.10
2017-10-16T09:07:43.113Z,6.57
2017-10-16T09:10:11.394Z,6.87
2017-10-16T09:12:39.663Z,7.07
2017-10-16T09:15:07.958Z,6.90
2017-10-16T09:17:36.225Z,6.80
2017-10-16T09:20:04.514Z,7.20
2017-10-16T09:22:32.025Z,6.67
2017-10-16T09:24:59.555Z,6.97
2017-10-16T09:27:27.073Z,5.83
2017-10-16T09:29:55.361Z,6.97
2017-10-16T09:32:24.548Z,5.90
2017-10-16T09:34:52.077Z,6.87
2017-10-16T09:37:19.582Z,6.17
2017-10-16T09:39:47.884Z,6.87
2017-10-16T09:42:15.384Z,6.50
2017-10-16T09:44:42.902Z,6.93
2017-10-16T09:47:10.402Z,6.50
2017-10-16T09:49:37.917Z,6.37
2017-10-16T09:52:05.415Z,6.70
2017-10-16T09:54:32.942Z,6.80
2017-10-16T09:57:00.445Z,6.40
2017-10-16T09:59:27.986Z,7.10
2017-10-16T10:01:55.488Z,6.40
2017-10-16T10:04:23.794Z,6.20
2017-10-16T10:06:51.294Z,6.43
2017-10-16T10:09:18.808Z,6.50
2017-10-16T10:11:46.308Z,6.70
2017-10-16T10:14:13.828Z,6.20
2017-10-16T10:16:41.327Z,5.90
2017-10-16T10:19:08.841Z,6.07
2017-10-16T10:21:36.345Z,6.97
2017-10-16T10:24:03.864Z,6.80
2017-10-16T10:26:31.368Z,6.77
2017-10-16T10:28:58.884Z,7.10
2017-10-16T10:31:26.396Z,6.40
2017-10-16T10:33:53.921Z,6.40
2017-10-16T10:36:21.417Z,6.73
2017-10-16T10:38:48.938Z,5.67
2017-10-16T10:41:16.434Z,5.90
2017-10-16T10:43:43.962Z,7.33
2017-10-16T10:46:11.467Z,6.40
2017-10-16T10:48:39.754Z,6.50
2017-10-16T10:51:07.286Z,6.53
2017-10-16T10:53:34.809Z,6.57
2017-10-16T10:56:02.304Z,5.80
2017-10-16T10:58:29.817Z,6.37
2017-10-16T11:00:57.325Z,5.50
2017-10-16T11:03:24.848Z,6.00
2017-10-16T11:05:52.347Z,6.60
2017-10-16T11:08:19.878Z,7.10
2017-10-16T11:10:47.390Z,6.67
2017-10-16T11:13:15.684Z,6.30
2017-10-16T11:15:43.202Z,6.40
2017-10-16T11:18:10.739Z,6.80
2017-10-16T11:20:38.253Z,6.23
2017-10-16T11:23:06.563Z,5.70
2017-10-16T11:25:34.065Z,6.50
2017-10-16T11:28:01.584Z,6.60
2017-10-16T11:30:29.089Z,5.60
2017-10-16T11:32:56.605Z,7.50
2017-10-16T11:35:24.114Z,5.60
2017-10-16T11:37:52.400Z,6.47
2017-10-16T11:40:20.656Z,6.30
2017-10-16T11:42:48.168Z,5.60
2017-10-16T11:45:15.676Z,6.87
2017-10-16T11:47:43.321Z,6.00
2017-10-16T11:50:10.842Z,6.17
2017-10-16T11:52:38.391Z,5.43
2017-10-16T11:55:05.884Z,6.83
2017-10-16T11:57:33.400Z,6.37
2017-10-16T12:00:01.682Z,6.53
2017-10-16T12:02:29.207Z,6.40
2017-10-16T12:04:56.951Z,6.70
2017-10-16T12:07:24.473Z,6.30
2017-10-16T12:09:51.972Z,6.37
2017-10-16T12:12:19.506Z,7.10
2017-10-16T12:14:47.043Z,6.17
2017-10-16T12:17:15.329Z,6.63
2017-10-16T12:19:42.833Z,6.73
2017-10-16T12:22:10.356Z,8.17
2017-10-16T12:24:37.867Z,6.43
2017-10-16T12:27:05.409Z,6.20
2017-10-16T12:29:32.912Z,5.83
2017-10-16T12:32:01.202Z,6.33
2017-10-16T12:34:28.728Z,6.80
2017-10-16T12:36:56.260Z,6.20
2017-10-16T12:39:23.769Z,6.90
2017-10-16T12:41:52.063Z,6.60
2017-10-16T12:44:19.568Z,6.77
2017-10-16T12:46:47.174Z,8.13
2017-10-16T12:49:15.434Z,7.03
2017-10-16T12:51:43.722Z,6.77
2017-10-16T12:54:11.991Z,6.43
2017-10-16T12:56:39.520Z,6.27
2017-10-16T12:59:07.026Z,7.03
2017-10-16T13:01:34.546Z,6.40
2017-10-16T13:04:02.057Z,5.93
2017-10-16T13:06:29.586Z,6.40
2017-10-16T13:08:57.104Z,6.73
2017-10-16T13:11:24.651Z,6.10
2017-10-16T13:13:52.177Z,6.77
2017-10-16T13:16:20.480Z,6.30
2017-10-16T13:18:47.996Z,6.60
2017-10-16T13:21:15.520Z,7.10
2017-10-16T13:23:43.058Z,6.40
2017-10-16T13:26:10.589Z,6.33
2017-10-16T13:28:38.870Z,6.77
2017-10-16T13:31:07.157Z,8.37
2017-10-16T13:33:35.421Z,7.90
2017-10-16T13:36:03.711Z,7.00
2017-10-16T13:38:31.978Z,8.00
2017-10-16T13:41:00.256Z,8.67
2017-10-16T13:43:28.535Z,7.60
2017-10-16T13:45:56.842Z,7.77
2017-10-16T13:48:24.353Z,8.10
2017-10-16T13:50:51.864Z,8.63
2017-10-16T13:53:19.372Z,8.13
2017-10-16T13:55:46.893Z,8.37
2017-10-16T13:58:14.394Z,8.20
2017-10-16T14:00:41.913Z,8.33
2017-10-16T14:03:09.408Z,8.30
2017-10-16T14:05:36.924Z,10.23
2017-10-16T14:08:04.421Z,8.40
2017-10-16T14:10:33.405Z,8.60
2017-10-16T14:13:00.910Z,8.83
2017-10-16T14:15:29.194Z,7.60
2017-10-16T14:17:56.693Z,8.47
2017-10-16T14:20:24.210Z,7.27
2017-10-16T14:22:51.729Z,7.70
2017-10-16T14:25:19.314Z,8.17
2017-10-16T14:27:47.586Z,8.57
2017-10-16T14:30:15.882Z,7.70
2017-10-16T14:32:44.142Z,8.50
2017-10-16T14:35:12.427Z,8.03
2017-10-16T14:37:40.694Z,8.17
2017-10-16T14:40:08.246Z,7.50
2017-10-16T14:42:35.749Z,7.90
2017-10-16T14:45:03.278Z,7.50
2017-10-16T14:47:31.872Z,8.43
2017-10-16T14:50:00.694Z,7.97
2017-10-16T14:52:28.206Z,8.33
2017-10-16T14:54:55.754Z,8.53
2017-10-16T14:57:24.109Z,7.70
2017-10-16T14:59:51.625Z,7.97
2017-10-16T15:02:21.798Z,8.50
2017-10-16T15:04:49.330Z,8.13
2017-10-16T15:07:16.826Z,8.63
2017-10-16T15:09:46.163Z,8.37
2017-10-16T15:12:14.549Z,8.07
2017-10-16T15:14:42.093Z,7.70
2017-10-16T15:17:10.360Z,7.70
2017-10-16T15:19:38.002Z,7.60
2017-10-16T15:22:05.534Z,7.90
2017-10-16T15:24:33.081Z,7.60
2017-10-16T15:27:00.613Z,8.20
2017-10-16T15:29:28.904Z,7.77
2017-10-16T15:31:57.213Z,7.60
2017-10-16T15:34:24.765Z,6.30
2017-10-16T15:36:52.335Z,7.77
2017-10-16T15:39:19.913Z,7.47
2017-10-16T15:41:47.421Z,8.60
2017-10-16T15:44:15.972Z,7.30
2017-10-16T15:46:43.517Z,8.23
2017-10-16T15:49:11.053Z,8.10
2017-10-16T15:51:38.557Z,7.30
2017-10-16T15:54:06.073Z,7.30
2017-10-16T15:56:33.581Z,7.23
2017-10-16T15:59:01.094Z,8.07
2017-10-16T16:01:28.658Z,8.30
2017-10-16T16:03:56.183Z,8.10
2017-10-16T16:06:24.460Z,7.67
2017-10-16T16:08:52.026Z,7.77
2017-10-16T16:11:19.607Z,8.00
2017-10-16T16:13:47.156Z,7.30
2017-10-16T16:16:14.669Z,7.70
2017-10-16T16:18:42.189Z,8.30
2017-10-16T16:21:09.693Z,9.33
2017-10-16T16:23:37.249Z,9.90
2017-10-16T16:26:04.746Z,9.70
2017-10-16T16:28:32.265Z,10.63
2017-10-16T16:30:59.766Z,9.70
2017-10-16T16:33:27.305Z,9.07
2017-10-16T16:35:55.570Z,9.13
2017-10-16T16:38:23.099Z,9.17
2017-10-16T16:40:50.622Z,9.13
2017-10-16T16:43:18.202Z,9.03
2017-10-16T16:45:45.706Z,7.30
2017-10-16T16:48:13.242Z,11.70
2017-10-16T16:50:40.769Z,11.37
2017-10-16T16:53:08.313Z,9.20
2017-10-16T16:55:36.599Z,10.53
2017-10-16T16:58:04.124Z,10.70
2017-10-16T17:00:31.625Z,9.20
2017-10-16T17:02:59.131Z,9.83
2017-10-16T17:05:26.665Z,9.13
2017-10-16T17:07:54.178Z,9.70
2017-10-16T17:10:21.719Z,10.77
2017-10-16T17:12:49.233Z,10.47
2017-10-16T17:15:17.955Z,8.77
2017-10-16T17:17:45.459Z,10.27
2017-10-16T17:20:13.744Z,10.03
2017-10-16T17:22:41.380Z,9.30
2017-10-16T17:25:09.677Z,10.13
2017-10-16T17:27:37.949Z,10.00
2017-10-16T17:30:06.255Z,9.67
2017-10-16T17:32:33.881Z,10.83
2017-10-16T17:35:02.176Z,10.60
2017-10-16T17:37:29.688Z,10.90
2017-10-16T17:39:57.585Z,10.60
2017-10-16T17:42:25.865Z,10.13
2017-10-16T17:44:54.156Z,9.70
2017-10-16T17:47:21.666Z,9.27
2017-10-16T17:49:49.185Z,9.97
2017-10-16T17:52:16.688Z,8.43
2017-10-16T17:54:44.214Z,9.10
2017-10-16T17:57:11.736Z,9.50
2017-10-16T17:59:40.040Z,8.27
2017-10-16T18:02:07.561Z,8.37
2017-10-16T18:04:35.092Z,8.77
2017-10-16T18:07:02.605Z,9.67
2017-10-16T18:09:30.904Z,8.93
2017-10-16T18:11:58.413Z,8.63
2017-10-16T18:14:25.957Z,9.17
2017-10-16T18:16:53.466Z,8.60
2017-10-16T18:19:20.993Z,8.80
2017-10-16T18:21:48.503Z,7.80
2017-10-16T18:24:16.038Z,8.20
2017-10-16T18:26:44.315Z,7.83
2017-10-16T18:29:12.663Z,8.27
2017-10-16T18:31:40.203Z,8.50
2017-10-16T18:34:07.746Z,7.60
2017-10-16T18:36:35.252Z,8.10
2017-10-16T18:39:02.778Z,9.03
2017-10-16T18:41:30.285Z,12.83
2017-10-16T18:43:57.818Z,10.40
2017-10-16T18:46:25.332Z,9.37
2017-10-16T18:48:52.854Z,9.40
2017-10-16T18:51:20.375Z,10.80
2017-10-16T18:53:47.900Z,10.60
2017-10-16T18:56:16.180Z,9.37
2017-10-16T18:58:44.478Z,7.63
2017-10-16T19:01:13.191Z,8.63
2017-10-16T19:03:40.709Z,9.27
2017-10-16T19:06:08.219Z,8.57
2017-10-16T19:08:35.814Z,8.00
2017-10-16T19:11:04.338Z,7.93
2017-10-16T19:13:32.773Z,8.70
2017-10-16T19:16:01.037Z,8.10
2017-10-16T19:18:28.563Z,8.23
2017-10-16T19:20:56.072Z,8.33
2017-10-16T19:23:24.469Z,7.80
2017-10-16T19:25:51.998Z,7.60
2017-10-16T19:28:20.292Z,7.93
2017-10-16T19:30:48.584Z,8.40
2017-10-16T19:33:16.114Z,8.30
2017-10-16T19:35:43.621Z,7.60
2017-10-16T19:38:11.162Z,6.70
2017-10-16T19:40:38.669Z,8.40
2017-10-16T19:43:06.217Z,9.30
2017-10-16T19:45:33.717Z,9.23
2017-10-16T19:48:01.240Z,8.40
2017-10-16T19:50:28.745Z,9.10
2017-10-16T19:52:57.041Z,9.20
2017-10-16T19:55:24.550Z,7.80
2017-10-16T19:57:52.084Z,8.47
2017-10-16T20:00:19.579Z,8.20
2017-10-16T20:02:47.170Z,6.93
2017-10-16T20:05:14.681Z,7.90
2017-10-16T20:07:42.251Z,8.20
2017-10-16T20:10:09.774Z,7.43
2017-10-16T20:12:37.287Z,8.60
2017-10-16T20:15:04.791Z,7.80
2017-10-16T20:17:32.315Z,7.70
2017-10-16T20:20:00.606Z,7.30
2017-10-16T20:22:28.161Z,8.07
2017-10-16T20:24:56.434Z,6.73
2017-10-16T20:27:24.738Z,7.60
2017-10-16T20:29:52.242Z,6.47
2017-10-16T20:32:19.778Z,7.80
2017-10-16T20:34:47.310Z,6.77
2017-10-16T20:37:14.849Z,6.83
2017-10-16T20:39:43.112Z,6.50
2017-10-16T20:42:10.624Z,6.37
2017-10-16T20:44:38.138Z,7.30
2017-10-16T20:47:05.672Z,6.27
2017-10-16T20:49:34.493Z,5.97
2017-10-16T20:52:02.008Z,6.70
2017-10-16T20:54:29.523Z,7.53
2017-10-16T20:56:59.108Z,7.70
2017-10-16T20:59:26.612Z,7.53
2017-10-16T21:01:55.837Z,7.10
2017-10-16T21:04:24.138Z,7.03
2017-10-16T21:06:51.664Z,8.20
2017-10-16T21:09:19.160Z,6.50
2017-10-16T21:11:46.686Z,7.77
2017-10-16T21:14:14.197Z,7.23
2017-10-16T21:16:42.485Z,7.80
2017-10-16T21:19:11.519Z,7.90
2017-10-16T21:21:39.039Z,7.33
2017-10-16T21:24:07.346Z,7.77
2017-10-16T21:26:34.874Z,7.43
2017-10-16T21:29:04.688Z,7.03
2017-10-16T21:31:33.057Z,7.33
2017-10-16T21:34:01.333Z,8.20
2017-10-16T21:36:29.631Z,7.50
2017-10-16T21:38:58.113Z,7.50
2017-10-16T21:41:25.633Z,7.43
2017-10-16T21:43:53.132Z,7.50
2017-10-16T21:46:20.793Z,7.23
2017-10-16T21:48:48.292Z,7.17
2017-10-16T21:51:15.842Z,7.13
2017-10-16T21:53:43.471Z,6.93
2017-10-16T21:56:11.004Z,7.00
2017-10-16T21:58:38.509Z,8.40
2017-10-16T22:01:07.593Z,6.50
2017-10-16T22:03:35.094Z,7.60
2017-10-16T22:06:02.617Z,8.27
2017-10-16T22:08:30.125Z,7.13
2017-10-16T22:10:59.340Z,7.53
2017-10-16T22:13:28.937Z,7.40
2017-10-16T22:15:57.204Z,7.77
2017-10-16T22:18:24.716Z,7.75
2017-10-16T22:20:52.233Z,7.50
2017-10-16T22:23:19.783Z,8.20
2017-10-16T22:25:47.941Z,8.37
2017-10-16T22:28:15.453Z,8.27
2017-10-16T22:30:43.794Z,7.23
2017-10-16T22:33:11.292Z,8.10
2017-10-16T22:35:39.601Z,6.87
2017-10-16T22:38:07.513Z,7.60
2017-10-16T22:40:35.033Z,7.53
2017-10-16T22:43:02.531Z,8.07
2017-10-16T22:45:30.110Z,8.33
2017-10-16T22:47:57.610Z,8.00
2017-10-16T22:50:25.361Z,7.67
2017-10-16T22:52:56.448Z,7.67
2017-10-16T22:55:23.973Z,7.67
2017-10-16T22:57:51.480Z,7.70
2017-10-16T23:00:19.217Z,7.20
2017-10-16T23:02:46.716Z,8.10
2017-10-16T23:05:14.260Z,8.70
2017-10-16T23:07:41.758Z,7.73
2017-10-16T23:10:09.290Z,7.70
2017-10-16T23:12:36.849Z,7.97
2017-10-16T23:15:04.372Z,7.00
2017-10-16T23:17:31.863Z,8.00
2017-10-16T23:19:59.370Z,8.07
2017-10-16T23:22:26.885Z,7.63
2017-10-16T23:24:54.394Z,8.13
2017-10-16T23:27:21.908Z,8.00
2017-10-16T23:29:49.464Z,6.80
2017-10-16T23:32:16.970Z,7.50
2017-10-16T23:34:44.481Z,7.10
2017-10-16T23:37:12.010Z,7.07
2017-10-16T23:39:39.512Z,6.03
2017-10-16T23:42:07.024Z,6.63
2017-10-16T23:44:34.517Z,6.37
2017-10-16T23:47:02.032Z,6.50
2017-10-16T23:49:29.546Z,6.87
2017-10-16T23:51:57.065Z,6.70
2017-10-16T23:54:24.577Z,7.37
2017-10-16T23:56:52.864Z,6.10
2017-10-16T23:59:20.361Z,6.17
